createdAt,value
2018-08-16T00:02:25.020Z,9.80
2018-08-16T00:04:53.536Z,9.90
2018-08-16T00:07:21.928Z,8.90
2018-08-16T00:09:50.311Z,9.00
2018-08-16T00:12:18.804Z,9.73
2018-08-16T00:14:47.204Z,10.50
2018-08-16T00:17:15.669Z,9.47
2018-08-16T00:19:44.073Z,10.60
2018-08-16T00:22:13.444Z,10.63
2018-08-16T00:24:41.924Z,10.20
2018-08-16T00:27:10.343Z,10.17
2018-08-16T00:29:38.781Z,11.20
2018-08-16T00:32:07.233Z,10.10
2018-08-16T00:34:35.603Z,9.70
2018-08-16T00:37:04.064Z,10.43
2018-08-16T00:39:32.444Z,10.23
2018-08-16T00:42:00.871Z,10.60
2018-08-16T00:44:29.295Z,10.55
2018-08-16T00:46:57.704Z,10.70
2018-08-16T00:49:26.129Z,10.70
2018-08-16T00:51:54.602Z,9.80
2018-08-16T00:54:23.077Z,9.87
2018-08-16T00:56:52.407Z,10.00
2018-08-16T00:59:20.829Z,10.60
2018-08-16T01:01:49.250Z,9.97
2018-08-16T01:04:17.713Z,9.30
2018-08-16T01:06:46.167Z,10.50
2018-08-16T01:09:14.556Z,9.40
2018-08-16T01:11:43.004Z,9.00
2018-08-16T01:14:11.520Z,9.93
2018-08-16T01:16:39.896Z,9.53
2018-08-16T01:19:08.335Z,9.98
2018-08-16T01:21:36.757Z,9.33
2018-08-16T01:24:05.169Z,10.57
2018-08-16T01:26:33.658Z,9.90
2018-08-16T01:29:02.120Z,10.17
2018-08-16T01:31:31.487Z,11.20
2018-08-16T01:33:59.926Z,10.80
2018-08-16T01:36:28.365Z,12.07
2018-08-16T01:38:56.747Z,11.22
2018-08-16T01:41:25.422Z,9.90
2018-08-16T01:43:54.030Z,10.10
2018-08-16T01:46:22.607Z,11.40
2018-08-16T01:48:51.016Z,11.43
2018-08-16T01:51:19.518Z,11.33
2018-08-16T01:53:47.977Z,10.60
2018-08-16T01:56:16.451Z,11.50
2018-08-16T01:58:44.934Z,11.37
2018-08-16T02:01:13.382Z,11.75
2018-08-16T02:03:41.844Z,11.13
2018-08-16T02:06:10.579Z,11.50
2018-08-16T02:08:39.127Z,10.63
2018-08-16T02:11:07.617Z,11.30
2018-08-16T02:13:36.019Z,11.60
2018-08-16T02:16:04.420Z,12.00
2018-08-16T02:18:32.898Z,12.60
2018-08-16T02:21:01.350Z,11.40
2018-08-16T02:23:29.718Z,11.80
2018-08-16T02:25:58.167Z,12.20
2018-08-16T02:28:26.561Z,12.57
2018-08-16T02:30:55.152Z,11.83
2018-08-16T02:33:23.630Z,13.03
2018-08-16T02:35:52.083Z,11.80
2018-08-16T02:38:20.492Z,11.60
2018-08-16T02:40:49.475Z,12.40
2018-08-16T02:43:17.934Z,11.53
2018-08-16T02:45:46.376Z,11.90
2018-08-16T02:48:15.103Z,12.53
2018-08-16T02:50:43.507Z,10.67
2018-08-16T02:53:11.920Z,12.30
2018-08-16T02:55:40.361Z,11.83
2018-08-16T02:58:08.751Z,12.00
2018-08-16T03:00:37.135Z,11.67
2018-08-16T03:03:05.739Z,12.50
2018-08-16T03:05:34.235Z,11.73
2018-08-16T03:08:02.646Z,10.82
2018-08-16T03:10:31.056Z,10.72
2018-08-16T03:12:59.494Z,10.30
2018-08-16T03:15:28.616Z,11.12
2018-08-16T03:17:57.065Z,11.90
2018-08-16T03:20:25.480Z,12.00
2018-08-16T03:22:53.876Z,11.43
2018-08-16T03:25:22.424Z,12.30
2018-08-16T03:27:50.755Z,11.53
2018-08-16T03:30:19.197Z,11.80
2018-08-16T03:32:47.619Z,10.63
2018-08-16T03:35:16.038Z,12.07
2018-08-16T03:37:44.456Z,12.80
2018-08-16T03:42:54.838Z,12.23
2018-08-16T03:45:23.341Z,12.00
2018-08-16T03:47:59.183Z,12.27
2018-08-16T03:50:27.843Z,12.37
2018-08-16T03:52:56.324Z,11.90
2018-08-16T03:55:24.737Z,10.33
2018-08-16T03:57:53.228Z,10.10
2018-08-16T04:00:21.649Z,10.87
2018-08-16T04:02:50.063Z,10.60
2018-08-16T04:05:18.704Z,11.90
2018-08-16T06:19:56.929Z,13.43
2018-08-16T06:22:25.459Z,14.40
2018-08-16T06:24:58.136Z,14.78
2018-08-16T06:27:31.293Z,14.03
2018-08-16T06:30:17.266Z,13.87
2018-08-16T06:32:54.149Z,12.47
2018-08-16T06:35:31.638Z,14.05
2018-08-16T06:38:00.180Z,13.22
2018-08-16T06:40:40.520Z,13.17
2018-08-16T06:43:16.782Z,12.18
2018-08-16T06:45:49.477Z,13.77
2018-08-16T06:48:26.176Z,13.58
2018-08-16T06:51:01.865Z,13.33
2018-08-16T06:53:37.214Z,13.33
2018-08-16T06:56:17.589Z,13.13
2018-08-16T06:58:49.272Z,14.57
2018-08-16T07:01:28.509Z,13.80
2018-08-16T07:04:08.893Z,13.10
2018-08-16T07:06:42.643Z,13.77
2018-08-16T07:09:19.517Z,13.27
2018-08-16T07:11:50.715Z,12.80
2018-08-16T07:14:22.595Z,12.73
2018-08-16T07:17:13.406Z,11.83
2018-08-16T07:19:47.559Z,11.57
2018-08-16T07:22:47.347Z,10.23
2018-08-16T07:25:32.355Z,11.60
2018-08-16T07:28:08.199Z,11.33
2018-08-16T07:30:52.017Z,11.18
2018-08-16T07:33:50.936Z,10.50
2018-08-16T10:39:40.490Z,5.90
2018-08-16T10:42:28.824Z,5.40
2018-08-16T11:11:59.830Z,5.80
2018-08-16T11:21:24.257Z,5.37
2018-08-16T12:23:55.273Z,3.07
2018-08-16T12:26:23.891Z,3.00
2018-08-16T12:28:56.409Z,3.07
2018-08-16T12:31:29.881Z,2.20
2018-08-16T12:33:58.456Z,2.50
2018-08-16T12:36:29.089Z,2.80
2018-08-16T12:38:58.245Z,2.77
2018-08-16T12:41:27.381Z,2.87
2018-08-16T12:43:57.100Z,2.67
2018-08-16T12:46:29.112Z,2.60
2018-08-16T12:48:58.905Z,3.10
2018-08-16T12:51:31.048Z,2.77
2018-08-16T12:53:59.685Z,3.13
2018-08-16T12:56:29.714Z,2.90
2018-08-16T12:59:14.197Z,3.03
2018-08-16T13:02:11.841Z,3.05
2018-08-16T13:04:40.252Z,3.03
2018-08-16T13:07:08.720Z,2.83
2018-08-16T13:09:37.110Z,2.87
2018-08-16T13:12:05.784Z,3.10
2018-08-16T13:14:34.267Z,3.20
2018-08-16T13:17:02.726Z,2.70
2018-08-16T13:19:31.165Z,2.90
2018-08-16T13:21:59.671Z,2.53
2018-08-16T13:24:28.081Z,3.07
2018-08-16T13:26:56.524Z,3.47
2018-08-16T13:29:24.993Z,3.23
2018-08-16T13:31:53.575Z,2.60
2018-08-16T13:34:22.077Z,2.90
2018-08-16T13:36:50.532Z,2.60
2018-08-16T13:39:18.925Z,2.77
2018-08-16T13:41:47.564Z,2.77
2018-08-16T13:44:16.022Z,2.27
2018-08-16T13:51:43.130Z,2.60
2018-08-16T13:54:11.637Z,2.98
2018-08-16T13:56:40.107Z,2.60
2018-08-16T13:59:08.730Z,2.43
2018-08-16T14:01:37.284Z,2.97
2018-08-16T14:04:05.822Z,2.40
2018-08-16T14:06:34.442Z,3.17
2018-08-16T14:09:03.187Z,2.90
2018-08-16T14:11:31.618Z,3.42
2018-08-16T14:14:00.116Z,3.03
2018-08-16T14:16:28.750Z,3.20
2018-08-16T14:18:57.260Z,2.90
2018-08-16T14:21:25.672Z,2.93
2018-08-16T14:23:54.419Z,2.83
2018-08-16T14:26:22.880Z,3.30
2018-08-16T14:28:51.644Z,3.10
2018-08-16T14:31:22.122Z,3.07
2018-08-16T14:33:50.646Z,2.90
2018-08-16T14:36:19.234Z,3.77
2018-08-16T14:38:47.754Z,3.10
2018-08-16T14:41:16.184Z,2.87
2018-08-16T14:43:44.678Z,2.93
2018-08-16T14:46:13.092Z,3.10
2018-08-16T14:48:42.455Z,3.77
2018-08-16T14:51:11.009Z,3.40
2018-08-16T14:53:39.489Z,3.10
2018-08-16T14:56:07.985Z,2.83
2018-08-16T14:58:36.434Z,3.47
2018-08-16T15:01:04.929Z,3.27
2018-08-16T15:03:33.374Z,3.07
2018-08-16T15:06:01.808Z,3.40
2018-08-16T15:08:30.219Z,3.00
2018-08-16T15:10:58.628Z,3.17
2018-08-16T15:13:27.107Z,3.07
2018-08-16T15:15:55.510Z,3.20
2018-08-16T15:18:23.917Z,3.07
2018-08-16T15:20:52.370Z,3.00
2018-08-16T15:23:21.759Z,2.90
2018-08-16T15:25:50.179Z,2.70
2018-08-16T15:28:19.484Z,3.13
2018-08-16T15:30:47.937Z,3.43
2018-08-16T15:33:16.373Z,2.93
2018-08-16T15:35:44.791Z,3.23
2018-08-16T15:38:13.288Z,3.33
2018-08-16T15:40:41.790Z,3.50
2018-08-16T15:43:10.564Z,3.60
2018-08-16T15:45:39.012Z,3.20
2018-08-16T15:48:13.687Z,3.33
2018-08-16T15:50:42.888Z,3.37
2018-08-16T15:53:11.434Z,3.70
2018-08-16T15:55:39.884Z,3.37
2018-08-16T15:58:10.433Z,3.63
2018-08-16T16:00:38.837Z,3.47
2018-08-16T16:03:07.292Z,3.33
2018-08-16T16:05:35.934Z,3.30
2018-08-16T16:08:04.573Z,3.30
2018-08-16T16:10:33.004Z,3.03
2018-08-16T16:13:01.706Z,3.43
2018-08-16T16:15:30.147Z,3.15
2018-08-16T16:17:58.881Z,3.20
2018-08-16T16:20:27.308Z,3.50
2018-08-16T16:22:55.705Z,3.62
2018-08-16T16:25:24.201Z,3.27
2018-08-16T16:27:52.743Z,3.77
2018-08-16T16:30:21.250Z,3.10
2018-08-16T16:32:49.688Z,3.37
2018-08-16T16:35:18.117Z,3.90
2018-08-16T16:37:46.547Z,3.63
2018-08-16T16:40:15.024Z,3.40
2018-08-16T16:42:43.512Z,3.77
2018-08-16T16:45:12.029Z,3.80
2018-08-16T16:47:40.558Z,3.17
2018-08-16T16:50:09.355Z,3.37
2018-08-16T16:52:37.872Z,3.50
2018-08-16T16:55:06.365Z,3.07
2018-08-16T16:57:34.837Z,2.97
2018-08-16T17:00:03.315Z,3.37
2018-08-16T17:02:31.742Z,3.50
2018-08-16T17:05:00.161Z,2.93
2018-08-16T17:07:28.721Z,3.02
2018-08-16T17:09:57.139Z,2.90
2018-08-16T17:12:25.637Z,3.27
2018-08-16T17:14:54.045Z,2.80
2018-08-16T17:17:22.502Z,3.10
2018-08-16T17:19:50.925Z,3.60
2018-08-16T17:22:19.364Z,3.30
2018-08-16T17:24:47.869Z,3.20
2018-08-16T17:27:16.305Z,3.27
2018-08-16T17:29:44.704Z,2.60
2018-08-16T17:32:13.163Z,2.92
2018-08-16T17:34:41.571Z,3.20
2018-08-16T17:37:10.021Z,3.40
2018-08-16T17:39:38.472Z,3.70
2018-08-16T17:42:07.102Z,3.80
2018-08-16T17:44:35.552Z,3.90
2018-08-16T17:47:04.073Z,3.17
2018-08-16T17:49:32.473Z,3.73
2018-08-16T17:52:00.961Z,3.67
2018-08-16T17:54:29.352Z,5.00
2018-08-16T17:56:57.792Z,3.70
2018-08-16T17:59:26.219Z,3.27
2018-08-16T18:01:54.641Z,3.17
2018-08-16T18:04:23.044Z,3.40
2018-08-16T18:06:51.496Z,3.77
2018-08-16T18:09:19.895Z,4.07
2018-08-16T18:11:48.590Z,3.17
2018-08-16T18:14:16.992Z,3.87
2018-08-16T18:16:45.572Z,3.57
2018-08-16T18:19:16.713Z,3.40
2018-08-16T18:21:45.188Z,3.10
2018-08-16T18:24:13.710Z,4.28
2018-08-16T18:26:42.614Z,4.23
2018-08-16T18:29:11.005Z,4.50
2018-08-16T18:31:40.156Z,3.60
2018-08-16T18:34:09.065Z,3.87
2018-08-16T18:36:37.728Z,3.80
2018-08-16T18:39:08.120Z,4.00
2018-08-16T18:41:36.717Z,3.75
2018-08-16T18:44:05.177Z,3.80
2018-08-16T18:46:33.608Z,3.70
2018-08-16T18:49:02.045Z,3.77
2018-08-16T18:51:30.438Z,3.13
2018-08-16T18:53:58.843Z,3.60
2018-08-16T18:56:27.286Z,4.10
2018-08-16T18:58:55.707Z,4.20
2018-08-16T19:01:24.176Z,3.63
2018-08-16T19:03:52.749Z,4.03
2018-08-16T19:06:21.173Z,3.77
2018-08-16T19:08:49.620Z,4.37
2018-08-16T19:11:18.155Z,4.50
2018-08-16T19:13:46.576Z,3.57
2018-08-16T19:16:14.999Z,4.00
2018-08-16T19:18:43.486Z,4.33
2018-08-16T19:21:11.910Z,3.93
2018-08-16T19:23:40.349Z,4.17
2018-08-16T19:26:08.825Z,4.20
2018-08-16T19:28:37.647Z,3.95
2018-08-16T19:31:06.084Z,3.70
2018-08-16T19:33:34.545Z,3.75
2018-08-16T19:36:02.974Z,3.40
2018-08-16T19:38:31.416Z,3.83
2018-08-16T19:40:59.801Z,4.30
2018-08-16T19:43:28.293Z,4.00
2018-08-16T19:45:56.837Z,4.30
2018-08-16T19:48:25.396Z,4.20
2018-08-16T19:50:53.761Z,4.60
2018-08-16T19:53:22.160Z,3.90
2018-08-16T19:55:50.610Z,4.73
2018-08-16T19:58:19.052Z,4.43
2018-08-16T20:00:47.599Z,4.10
2018-08-16T20:03:16.073Z,3.53
2018-08-16T20:05:44.467Z,3.80
2018-08-16T20:08:12.897Z,3.80
2018-08-16T20:10:41.347Z,3.87
2018-08-16T20:13:10.556Z,4.60
2018-08-16T20:15:39.064Z,4.13
2018-08-16T20:18:07.515Z,3.93
2018-08-16T20:20:36.112Z,3.67
2018-08-16T20:23:04.583Z,4.97
2018-08-16T20:25:33.125Z,3.90
2018-08-16T20:28:01.540Z,4.12
2018-08-16T20:30:29.942Z,4.10
2018-08-16T20:32:58.364Z,4.10
2018-08-16T20:35:30.499Z,4.67
2018-08-16T20:40:55.115Z,4.00
2018-08-16T20:43:23.672Z,4.23
2018-08-16T20:45:52.487Z,4.20
2018-08-16T20:48:20.929Z,3.73
2018-08-16T20:50:49.424Z,3.90
2018-08-16T20:53:21.112Z,4.27
2018-08-16T20:55:49.572Z,4.30
2018-08-16T20:58:18.679Z,4.33
2018-08-16T21:00:47.166Z,3.77
2018-08-16T21:03:15.996Z,4.22
2018-08-16T21:05:44.426Z,4.20
2018-08-16T21:08:13.174Z,4.13
2018-08-16T21:10:41.676Z,4.50
2018-08-16T21:13:10.303Z,4.22
2018-08-16T21:15:38.773Z,4.45
2018-08-16T21:18:07.229Z,4.70
2018-08-16T21:20:35.840Z,4.78
2018-08-16T21:23:04.264Z,4.60
2018-08-16T21:25:32.657Z,5.03
2018-08-16T21:28:01.121Z,4.90
2018-08-16T21:30:29.541Z,4.70
2018-08-16T21:32:57.891Z,6.30
2018-08-16T21:35:26.429Z,6.10
2018-08-16T21:37:54.905Z,5.23
2018-08-16T21:40:23.417Z,5.67
2018-08-16T21:42:51.838Z,5.53
2018-08-16T21:45:20.232Z,6.53
2018-08-16T21:47:48.648Z,5.73
2018-08-16T21:50:17.089Z,5.00
2018-08-16T21:52:45.553Z,5.75
2018-08-16T21:55:14.016Z,5.70
2018-08-16T21:57:42.459Z,5.28
2018-08-16T22:00:11.819Z,5.90
2018-08-16T22:02:40.279Z,4.77
2018-08-16T22:05:08.715Z,4.77
2018-08-16T22:08:14.128Z,5.67
2018-08-16T22:10:43.691Z,4.87
2018-08-16T22:13:12.162Z,5.10
2018-08-16T22:15:40.671Z,4.73
2018-08-16T22:18:09.406Z,5.20
2018-08-16T22:20:37.867Z,5.70
2018-08-16T22:23:06.331Z,4.93
2018-08-16T22:25:34.813Z,5.70
2018-08-16T22:28:03.601Z,5.50
2018-08-16T22:30:32.002Z,4.70
2018-08-16T22:33:00.376Z,5.50
2018-08-16T22:35:28.883Z,5.30
2018-08-16T22:37:57.272Z,5.87
2018-08-16T22:40:25.658Z,5.37
2018-08-16T22:42:54.092Z,5.20
2018-08-16T22:45:22.511Z,5.80
2018-08-16T22:47:50.917Z,4.90
2018-08-16T22:50:19.396Z,4.37
2018-08-16T22:52:47.739Z,5.40
2018-08-16T22:55:16.157Z,5.10
2018-08-16T22:57:44.594Z,4.95
2018-08-16T23:00:13.140Z,5.03
2018-08-16T23:02:42.845Z,5.50
2018-08-16T23:05:11.391Z,5.37
2018-08-16T23:07:39.806Z,5.30
2018-08-16T23:10:08.210Z,5.80
2018-08-16T23:12:36.615Z,5.63
2018-08-16T23:15:05.951Z,6.10
2018-08-16T23:17:34.431Z,6.28
2018-08-16T23:20:03.847Z,5.73
2018-08-16T23:22:32.275Z,6.00
2018-08-16T23:25:00.720Z,6.35
2018-08-16T23:27:29.145Z,6.30
2018-08-16T23:29:57.580Z,6.07
2018-08-16T23:32:26.045Z,6.20
2018-08-16T23:34:54.535Z,6.97
2018-08-16T23:37:22.988Z,5.97
2018-08-16T23:39:51.477Z,6.23
2018-08-16T23:42:19.903Z,5.77
2018-08-16T23:44:48.322Z,5.95
2018-08-16T23:47:21.554Z,5.40
2018-08-16T23:49:50.030Z,5.83
2018-08-16T23:52:18.453Z,6.17
2018-08-16T23:54:46.893Z,6.17
2018-08-16T23:57:15.376Z,6.70
2018-08-16T23:59:43.862Z,6.10
